createdAt,value
2022-09-07T00:00:58.033Z,36.08
2022-09-07T00:04:25.210Z,36.09
2022-09-07T00:07:52.094Z,36.11
2022-09-07T00:11:20.482Z,36.08
2022-09-07T00:14:47.217Z,36.03
2022-09-07T00:18:15.208Z,36.00
2022-09-07T00:21:42.262Z,35.94
2022-09-07T00:25:09.459Z,35.91
2022-09-07T00:28:35.025Z,35.86
2022-09-07T00:32:02.411Z,35.83
2022-09-07T00:35:22.979Z,35.74
2022-09-07T00:38:38.716Z,35.66
2022-09-07T00:42:06.152Z,35.59
2022-09-07T00:45:47.952Z,35.54
2022-09-07T00:49:16.860Z,35.46
2022-09-07T00:52:38.561Z,35.41
2022-09-07T00:55:46.410Z,35.34
2022-09-07T00:59:13.028Z,35.28
2022-09-07T01:02:40.913Z,35.21
2022-09-07T01:06:10.517Z,35.14
2022-09-07T01:09:31.855Z,35.09
2022-09-07T01:12:58.322Z,35.04
2022-09-07T01:16:36.730Z,34.98
2022-09-07T01:20:06.025Z,34.89
2022-09-07T01:23:35.733Z,34.82
2022-09-07T01:27:01.302Z,34.74
2022-09-07T01:30:31.050Z,34.66
2022-09-07T01:33:53.591Z,34.57
2022-09-07T01:37:32.569Z,34.48
2022-09-07T01:41:02.853Z,34.33
2022-09-07T01:44:46.208Z,34.25
2022-09-07T01:48:29.013Z,34.14
2022-09-07T01:51:56.082Z,33.98
2022-09-07T01:55:25.923Z,33.83
2022-09-07T01:58:53.041Z,33.72
2022-09-07T02:02:23.134Z,33.59
2022-09-07T02:05:49.735Z,33.46
2022-09-07T02:09:24.030Z,33.30
2022-09-07T02:12:31.048Z,33.15
2022-09-07T02:15:58.792Z,33.00
2022-09-07T02:19:15.335Z,32.83
2022-09-07T02:22:40.925Z,32.67
2022-09-07T02:26:03.508Z,32.51
2022-09-07T02:29:34.035Z,32.34
2022-09-07T02:33:03.580Z,32.16
2022-09-07T02:36:21.735Z,31.98
2022-09-07T02:39:48.488Z,31.85
2022-09-07T02:43:16.212Z,31.71
2022-09-07T02:46:36.102Z,31.56
2022-09-07T02:50:20.639Z,31.44
2022-09-07T02:53:57.618Z,31.30
2022-09-07T02:57:37.139Z,31.17
2022-09-07T03:01:16.293Z,31.06
2022-09-07T03:05:00.212Z,30.96
2022-09-07T03:08:26.692Z,30.83
2022-09-07T03:11:55.524Z,30.73
2022-09-07T03:15:22.594Z,30.63
2022-09-07T03:18:50.253Z,30.52
2022-09-07T03:22:17.402Z,30.44
2022-09-07T03:25:44.445Z,30.35
2022-09-07T03:29:11.100Z,30.23
2022-09-07T03:32:38.752Z,30.13
2022-09-07T03:36:05.718Z,30.00
2022-09-07T03:39:32.980Z,29.87
2022-09-07T03:42:59.614Z,29.75
2022-09-07T03:46:27.146Z,29.63
2022-09-07T03:49:57.925Z,29.48
2022-09-07T03:53:25.471Z,29.35
2022-09-07T03:57:01.434Z,29.24
2022-09-07T04:00:28.692Z,29.13
2022-09-07T04:03:59.966Z,29.01
2022-09-07T04:07:03.343Z,28.93
2022-09-07T04:10:30.841Z,28.84
2022-09-07T04:13:47.469Z,28.77
2022-09-07T04:17:14.491Z,28.69
2022-09-07T04:20:41.057Z,28.59
2022-09-07T04:24:12.188Z,28.50
2022-09-07T04:27:39.373Z,28.39
2022-09-07T04:31:07.232Z,28.29
2022-09-07T04:34:35.931Z,28.21
2022-09-07T04:37:35.807Z,28.13
2022-09-07T04:40:55.901Z,28.06
2022-09-07T04:44:23.181Z,27.97
2022-09-07T04:47:32.448Z,27.89
2022-09-07T04:50:52.243Z,27.80
2022-09-07T04:54:19.366Z,27.71
2022-09-07T04:57:39.562Z,27.61
2022-09-07T05:01:06.498Z,27.51
2022-09-07T05:04:28.354Z,27.42
2022-09-07T05:07:50.752Z,27.32
2022-09-07T05:11:17.427Z,27.21
2022-09-07T05:14:44.313Z,27.10
2022-09-07T05:18:10.929Z,27.00
2022-09-07T05:21:37.704Z,26.90
2022-09-07T05:25:04.458Z,26.80
2022-09-07T05:28:30.195Z,26.71
2022-09-07T05:31:50.235Z,26.62
2022-09-07T05:35:17.305Z,26.53
2022-09-07T05:38:43.802Z,26.42
2022-09-07T05:42:16.427Z,26.31
2022-09-07T05:45:25.155Z,26.18
2022-09-07T05:48:32.110Z,26.08
2022-09-07T05:51:58.782Z,25.98
2022-09-07T05:55:32.199Z,25.88
2022-09-07T05:58:59.313Z,25.81
2022-09-07T06:02:25.874Z,25.71
2022-09-07T06:05:51.670Z,25.60
2022-09-07T06:09:16.527Z,25.49
2022-09-07T06:12:37.434Z,25.38
2022-09-07T06:16:03.953Z,25.28
2022-09-07T06:19:33.675Z,25.16
2022-09-07T06:23:00.147Z,25.04
2022-09-07T06:26:29.939Z,24.93
2022-09-07T06:29:57.097Z,24.85
2022-09-07T06:33:25.858Z,24.78
2022-09-07T06:37:01.616Z,24.69
2022-09-07T06:40:28.321Z,24.61
2022-09-07T06:43:47.672Z,24.48
2022-09-07T06:47:14.074Z,24.36
2022-09-07T06:50:40.850Z,24.24
2022-09-07T06:57:54.611Z,24.00
2022-09-07T07:01:25.704Z,23.88
2022-09-07T07:04:44.444Z,23.79
2022-09-07T07:08:14.680Z,23.69
2022-09-07T07:11:44.864Z,23.59
2022-09-07T07:15:12.220Z,23.47
2022-09-07T07:18:32.238Z,23.35
2022-09-07T07:22:14.436Z,23.22
2022-09-07T07:25:47.018Z,23.11
2022-09-07T07:29:07.240Z,23.02
2022-09-07T07:32:33.732Z,22.95
2022-09-07T07:36:00.500Z,22.87
2022-09-07T07:43:05.702Z,22.73
2022-09-07T07:46:34.252Z,22.68
2022-09-07T07:53:42.924Z,22.58
2022-09-07T07:56:59.835Z,22.54
2022-09-07T08:00:37.675Z,22.51
2022-09-07T08:03:58.639Z,22.47
2022-09-07T08:07:26.111Z,22.38
2022-09-07T08:10:52.502Z,22.37
2022-09-07T08:14:19.282Z,22.29
2022-09-07T08:17:45.692Z,22.24
2022-09-07T08:21:05.605Z,22.17
2022-09-07T08:24:23.828Z,22.11
2022-09-07T08:27:50.510Z,22.04
2022-09-07T08:31:17.038Z,21.96
2022-09-07T08:34:49.051Z,21.87
2022-09-07T08:38:20.495Z,21.78
2022-09-07T08:41:52.630Z,21.68
2022-09-07T08:45:19.370Z,21.58
2022-09-07T08:48:54.662Z,21.49
2022-09-07T08:52:24.229Z,21.40
2022-09-07T08:56:09.251Z,21.32
2022-09-07T08:59:54.502Z,21.23
2022-09-07T09:03:33.330Z,21.11
2022-09-07T09:07:04.207Z,20.96
2022-09-07T09:10:38.730Z,20.86
2022-09-07T09:14:10.757Z,20.75
2022-09-07T09:17:41.267Z,20.64
2022-09-07T09:21:26.424Z,20.54
2022-09-07T09:24:56.423Z,20.45
2022-09-07T09:28:26.600Z,20.41
2022-09-07T09:31:56.052Z,20.33
2022-09-07T09:35:23.518Z,20.30
2022-09-07T09:38:41.055Z,20.23
2022-09-07T09:42:08.113Z,20.18
2022-09-07T09:45:29.062Z,20.14
2022-09-07T09:49:00.894Z,20.08
2022-09-07T09:52:32.042Z,20.03
2022-09-07T09:56:06.488Z,19.98
2022-09-07T10:04:06.269Z,19.90
2022-09-07T10:07:17.036Z,19.83
2022-09-07T10:10:46.703Z,19.78
2022-09-07T10:14:13.318Z,19.72
2022-09-07T10:17:44.698Z,19.67
2022-09-07T10:21:16.939Z,19.64
2022-09-07T10:24:36.640Z,19.60
2022-09-07T10:28:12.810Z,19.54
2022-09-07T10:31:45.875Z,19.48
2022-09-07T10:35:24.246Z,19.44
2022-09-07T10:39:03.641Z,19.39
2022-09-07T10:42:31.921Z,19.32
2022-09-07T10:50:22.120Z,19.15
2022-09-07T10:58:07.525Z,19.07
2022-09-07T11:01:45.941Z,19.05
2022-09-07T11:05:18.561Z,19.04
2022-09-07T11:09:15.729Z,19.02
2022-09-07T11:12:28.610Z,18.98
2022-09-07T11:15:29.833Z,18.98
2022-09-07T11:19:35.165Z,18.95
2022-09-07T11:22:37.351Z,18.92
2022-09-07T11:26:20.493Z,18.86
2022-09-07T11:29:59.222Z,18.83
2022-09-07T11:33:31.843Z,18.79
2022-09-07T11:37:12.970Z,18.78
2022-09-07T11:40:32.415Z,18.71
2022-09-07T11:44:03.244Z,18.67
2022-09-07T11:47:31.747Z,18.63
2022-09-07T11:51:04.899Z,18.61
2022-09-07T11:54:34.626Z,18.58
2022-09-07T11:58:16.194Z,18.53
2022-09-07T12:02:04.682Z,18.49
2022-09-07T12:05:44.697Z,18.45
2022-09-07T12:09:16.061Z,18.41
2022-09-07T12:13:06.528Z,18.37
2022-09-07T12:16:58.430Z,18.35
2022-09-07T12:20:25.749Z,18.31
2022-09-07T12:23:59.316Z,18.26
2022-09-07T12:27:16.127Z,18.22
2022-09-07T12:30:33.174Z,18.19
2022-09-07T12:34:05.700Z,18.14
2022-09-07T12:37:33.302Z,18.10
2022-09-07T12:41:10.088Z,18.05
2022-09-07T12:44:47.689Z,18.00
2022-09-07T12:48:13.362Z,17.95
2022-09-07T12:52:09.038Z,17.91
2022-09-07T12:59:32.710Z,17.81
2022-09-07T13:02:59.033Z,17.75
2022-09-07T13:10:20.672Z,17.61
2022-09-07T13:14:08.897Z,17.57
2022-09-07T13:17:35.012Z,17.53
2022-09-07T13:21:01.946Z,17.51
2022-09-07T13:28:15.242Z,17.45
2022-09-07T13:31:40.115Z,17.43
2022-09-07T13:35:15.167Z,17.40
2022-09-07T13:38:58.222Z,17.36
2022-09-07T13:42:31.650Z,17.32
2022-09-07T13:46:11.022Z,17.30
2022-09-07T13:49:38.679Z,17.29
2022-09-07T13:53:13.968Z,17.27
2022-09-07T13:56:44.128Z,17.28
2022-09-07T14:00:16.058Z,17.28
2022-09-07T14:03:42.877Z,17.34
2022-09-07T14:07:17.619Z,17.46
2022-09-07T14:10:39.385Z,17.86
2022-09-07T14:14:09.728Z,18.36
2022-09-07T14:17:39.634Z,18.35
2022-09-07T14:21:06.313Z,18.23
2022-09-07T14:24:33.509Z,18.14
2022-09-07T14:28:04.811Z,18.22
2022-09-07T14:31:32.526Z,19.39
2022-09-07T14:34:36.805Z,19.76
2022-09-07T14:38:05.743Z,19.55
2022-09-07T14:41:32.411Z,19.23
2022-09-07T14:45:14.178Z,19.02
2022-09-07T14:48:42.280Z,19.57
2022-09-07T14:52:09.856Z,20.75
2022-09-07T14:55:37.098Z,21.17
2022-09-07T14:59:16.210Z,22.05
2022-09-07T15:02:34.151Z,22.83
2022-09-07T15:07:01.057Z,23.99
2022-09-07T15:10:03.504Z,23.63
2022-09-07T15:13:39.518Z,23.42
2022-09-07T15:20:12.055Z,23.42
2022-09-07T15:23:23.163Z,24.57
2022-09-07T15:27:06.215Z,25.06
2022-09-07T15:30:29.791Z,25.40
2022-09-07T15:34:05.515Z,26.30
2022-09-07T15:41:27.481Z,27.34
2022-09-07T15:44:55.159Z,26.81
2022-09-07T15:48:25.226Z,26.92
2022-09-07T15:55:25.283Z,27.61
2022-09-07T15:58:44.626Z,27.92
2022-09-07T16:01:51.590Z,28.20
2022-09-07T16:05:19.123Z,28.40
2022-09-07T16:08:45.786Z,28.51
2022-09-07T16:16:06.078Z,28.68
2022-09-07T16:19:15.975Z,28.74
2022-09-07T16:26:15.266Z,28.87
2022-09-07T16:29:42.656Z,28.90
2022-09-07T16:33:10.968Z,28.94
2022-09-07T16:36:46.711Z,29.01
2022-09-07T16:40:13.908Z,29.14
2022-09-07T16:47:20.340Z,29.28
2022-09-07T16:50:46.992Z,29.39
2022-09-07T16:54:13.732Z,29.43
2022-09-07T17:01:28.172Z,29.60
2022-09-07T17:04:54.568Z,29.59
2022-09-07T17:08:21.298Z,29.60
2022-09-07T17:11:48.072Z,29.52
2022-09-07T17:15:21.598Z,29.51
2022-09-07T17:22:14.138Z,29.26
2022-09-07T17:25:42.178Z,29.04
2022-09-07T17:29:10.452Z,29.11
2022-09-07T17:32:37.834Z,29.07
2022-09-07T17:36:04.925Z,29.24
2022-09-07T17:39:32.496Z,29.47
2022-09-07T17:46:16.410Z,29.44
2022-09-07T17:49:20.096Z,29.54
2022-09-07T17:52:27.089Z,29.72
2022-09-07T17:55:53.692Z,29.88
2022-09-07T18:03:00.845Z,30.03
2022-09-07T18:06:25.373Z,30.24
2022-09-07T18:09:52.014Z,30.17
2022-09-07T18:13:23.436Z,30.25
2022-09-07T18:16:14.993Z,30.15
2022-09-07T18:19:41.778Z,30.23
2022-09-07T18:23:10.391Z,30.22
2022-09-07T18:26:18.414Z,30.07
2022-09-07T18:29:33.493Z,30.21
2022-09-07T18:33:01.545Z,30.56
2022-09-07T18:36:29.108Z,30.89
2022-09-07T18:39:56.934Z,31.12
2022-09-07T18:43:23.571Z,31.44
2022-09-07T18:46:52.187Z,31.69
2022-09-07T18:50:18.696Z,31.91
2022-09-07T18:53:47.090Z,32.10
2022-09-07T18:57:00.730Z,32.05
2022-09-07T19:00:29.484Z,31.89
2022-09-07T19:03:56.422Z,31.65
2022-09-07T19:07:27.508Z,31.53
2022-09-07T19:10:57.080Z,31.47
2022-09-07T19:14:23.747Z,31.29
2022-09-07T19:17:40.748Z,31.45
2022-09-07T19:21:08.341Z,31.87
2022-09-07T19:24:36.355Z,32.24
2022-09-07T19:28:05.191Z,32.55
2022-09-07T19:31:32.822Z,32.80
2022-09-07T19:35:02.472Z,32.97
2022-09-07T19:38:30.423Z,32.88
2022-09-07T19:41:52.016Z,32.91
2022-09-07T19:45:19.152Z,33.02
2022-09-07T19:48:25.834Z,33.18
2022-09-07T19:51:36.691Z,33.33
2022-09-07T19:55:03.812Z,33.56
2022-09-07T19:58:30.683Z,33.67
2022-09-07T20:01:57.456Z,33.46
2022-09-07T20:05:23.917Z,33.18
2022-09-07T20:08:50.984Z,32.92
2022-09-07T20:12:07.723Z,32.70
2022-09-07T20:15:34.728Z,32.49
2022-09-07T20:19:02.774Z,32.31
2022-09-07T20:22:32.599Z,32.34
2022-09-07T20:25:59.177Z,32.43
2022-09-07T20:32:53.869Z,32.81
2022-09-07T20:36:20.634Z,32.75
2022-09-07T20:39:47.650Z,32.51
2022-09-07T20:43:16.237Z,32.22
2022-09-07T20:46:43.563Z,32.03
2022-09-07T20:50:09.142Z,31.87
2022-09-07T20:53:29.830Z,31.84
2022-09-07T20:57:04.531Z,31.99
2022-09-07T21:00:31.588Z,32.12
2022-09-07T21:03:43.253Z,32.18
2022-09-07T21:07:13.036Z,32.34
2022-09-07T21:10:40.135Z,32.56
2022-09-07T21:14:06.568Z,32.74
2022-09-07T21:17:33.610Z,32.93
2022-09-07T21:21:18.719Z,33.07
2022-09-07T21:24:31.839Z,33.25
2022-09-07T21:27:40.725Z,33.41
2022-09-07T21:31:07.633Z,33.50
2022-09-07T21:34:36.562Z,33.59
2022-09-07T21:37:55.710Z,33.70
2022-09-07T21:41:23.515Z,33.71
2022-09-07T21:44:38.146Z,33.76
2022-09-07T21:47:58.695Z,33.87
2022-09-07T21:51:25.417Z,33.99
2022-09-07T21:54:55.856Z,34.03
2022-09-07T21:58:22.621Z,34.06
2022-09-07T22:01:58.066Z,33.99
2022-09-07T22:05:24.691Z,34.05
2022-09-07T22:08:51.458Z,34.08
2022-09-07T22:12:18.545Z,34.02
2022-09-07T22:15:48.019Z,34.02
2022-09-07T22:19:15.862Z,34.04
2022-09-07T22:22:44.340Z,34.03
2022-09-07T22:26:10.948Z,33.99
2022-09-07T22:29:37.392Z,33.98
2022-09-07T22:32:36.921Z,33.93
2022-09-07T22:36:06.579Z,33.82
2022-09-07T22:39:35.887Z,33.70
2022-09-07T22:43:03.743Z,33.62
2022-09-07T22:46:31.670Z,33.64
2022-09-07T22:49:58.786Z,33.63
2022-09-07T22:53:20.031Z,33.62
2022-09-07T22:56:55.945Z,33.54
2022-09-07T23:00:23.869Z,33.45
2022-09-07T23:03:50.788Z,33.29
2022-09-07T23:07:27.530Z,33.18
2022-09-07T23:10:56.826Z,33.08
2022-09-07T23:14:27.938Z,32.99
2022-09-07T23:17:53.954Z,32.91
2022-09-07T23:21:21.616Z,32.88
2022-09-07T23:24:57.892Z,32.80
2022-09-07T23:28:24.349Z,32.65
2022-09-07T23:31:53.980Z,32.40
2022-09-07T23:35:16.503Z,32.23
2022-09-07T23:38:13.589Z,32.18
2022-09-07T23:41:40.006Z,32.12
2022-09-07T23:44:57.211Z,32.03
2022-09-07T23:48:24.900Z,31.88
2022-09-07T23:51:45.264Z,31.69
2022-09-07T23:55:13.805Z,31.53
2022-09-07T23:58:41.124Z,31.40
